createdAt,value
2019-02-19T00:00:45.800Z,25.03
2019-02-19T00:03:14.926Z,20.43
2019-02-19T00:05:44.123Z,24.73
2019-02-19T00:08:13.342Z,24.53
2019-02-19T00:10:42.747Z,19.77
2019-02-19T00:13:12.064Z,18.97
2019-02-19T00:15:41.567Z,22.73
2019-02-19T00:18:10.794Z,21.47
2019-02-19T00:20:39.988Z,24.10
2019-02-19T00:23:09.109Z,20.90
2019-02-19T00:25:38.498Z,18.90
2019-02-19T00:28:10.566Z,25.53
2019-02-19T00:30:39.859Z,20.40
2019-02-19T00:33:08.977Z,21.60
2019-02-19T00:35:38.193Z,24.27
2019-02-19T00:38:07.410Z,22.27
2019-02-19T00:40:36.786Z,21.20
2019-02-19T00:43:06.027Z,19.87
2019-02-19T00:45:35.331Z,16.60
2019-02-19T00:48:04.661Z,22.80
2019-02-19T00:50:33.966Z,21.07
2019-02-19T00:53:03.178Z,18.77
2019-02-19T00:55:32.374Z,16.50
2019-02-19T00:58:01.503Z,22.00
2019-02-19T01:00:30.700Z,22.30
2019-02-19T01:03:00.034Z,22.00
2019-02-19T01:05:29.355Z,20.10
2019-02-19T01:07:58.782Z,17.23
2019-02-19T01:10:28.117Z,16.67
2019-02-19T01:12:57.399Z,19.50
2019-02-19T01:15:26.723Z,20.27
2019-02-19T01:17:55.934Z,20.03
2019-02-19T01:20:25.270Z,15.20
2019-02-19T01:22:54.660Z,18.47
2019-02-19T01:25:23.783Z,16.23
2019-02-19T01:27:53.088Z,18.07
2019-02-19T01:30:22.318Z,16.90
2019-02-19T01:32:51.489Z,14.40
2019-02-19T01:35:20.723Z,18.70
2019-02-19T01:37:49.928Z,21.00
2019-02-19T01:40:19.152Z,15.57
2019-02-19T01:42:48.450Z,18.17
2019-02-19T01:45:17.661Z,19.17
2019-02-19T01:47:47.058Z,15.53
2019-02-19T01:50:16.291Z,20.73
2019-02-19T01:52:45.581Z,13.37
2019-02-19T01:55:14.811Z,17.63
2019-02-19T01:57:44.006Z,19.50
2019-02-19T02:00:13.935Z,18.27
2019-02-19T02:02:43.235Z,26.20
2019-02-19T02:05:12.452Z,20.13
2019-02-19T02:07:41.636Z,18.83
2019-02-19T02:10:10.858Z,18.03
2019-02-19T02:12:40.347Z,18.13
2019-02-19T02:15:09.586Z,15.20
2019-02-19T02:17:38.871Z,16.23
2019-02-19T02:20:08.801Z,16.80
2019-02-19T02:22:38.091Z,18.60
2019-02-19T02:25:07.523Z,17.03
2019-02-19T02:27:36.640Z,17.57
2019-02-19T02:30:07.530Z,18.73
2019-02-19T02:32:36.757Z,19.00
2019-02-19T02:35:06.261Z,17.43
2019-02-19T02:37:35.392Z,21.50
2019-02-19T02:40:06.092Z,14.87
2019-02-19T02:42:35.433Z,16.87
2019-02-19T02:45:05.233Z,16.20
2019-02-19T02:47:34.475Z,23.73
2019-02-19T02:50:04.175Z,22.80
2019-02-19T02:52:33.402Z,21.10
2019-02-19T02:55:02.616Z,16.10
2019-02-19T02:57:31.815Z,17.10
2019-02-19T03:00:01.322Z,18.30
2019-02-19T03:02:30.451Z,17.73
2019-02-19T03:04:59.654Z,20.77
2019-02-19T03:07:33.472Z,20.13
2019-02-19T03:10:02.748Z,16.97
2019-02-19T03:12:31.985Z,20.83
2019-02-19T03:15:01.160Z,18.50
2019-02-19T03:17:30.406Z,21.43
2019-02-19T03:19:59.617Z,17.33
2019-02-19T03:22:28.740Z,16.97
2019-02-19T03:24:58.118Z,17.87
2019-02-19T03:27:27.253Z,22.07
2019-02-19T03:29:56.531Z,21.60
2019-02-19T03:32:25.658Z,16.90
2019-02-19T03:34:54.858Z,22.27
2019-02-19T03:37:23.980Z,19.97
2019-02-19T03:39:53.189Z,22.00
2019-02-19T03:42:22.407Z,19.17
2019-02-19T03:44:51.701Z,19.23
2019-02-19T03:47:20.815Z,16.07
2019-02-19T03:49:50.018Z,19.40
2019-02-19T03:52:19.152Z,20.53
2019-02-19T03:54:48.457Z,19.50
2019-02-19T03:57:17.887Z,25.30
2019-02-19T03:59:47.202Z,19.83
2019-02-19T04:02:16.501Z,22.13
2019-02-19T04:04:45.712Z,20.43
2019-02-19T04:07:14.917Z,22.07
2019-02-19T04:09:44.031Z,22.30
2019-02-19T04:12:13.220Z,17.23
2019-02-19T04:14:42.452Z,23.17
2019-02-19T04:17:11.751Z,24.93
2019-02-19T04:19:40.888Z,22.70
2019-02-19T04:22:10.174Z,22.30
2019-02-19T04:24:39.287Z,18.57
2019-02-19T04:27:08.577Z,25.50
2019-02-19T04:29:38.003Z,20.93
2019-02-19T04:32:07.206Z,20.70
2019-02-19T04:34:36.322Z,22.47
2019-02-19T04:37:05.503Z,21.67
2019-02-19T04:39:34.723Z,21.53
2019-02-19T04:42:04.103Z,19.90
2019-02-19T04:44:33.224Z,23.93
2019-02-19T04:47:02.609Z,24.47
2019-02-19T04:49:31.750Z,20.00
2019-02-19T04:52:01.049Z,24.13
2019-02-19T04:54:30.289Z,20.67
2019-02-19T04:56:59.574Z,28.03
2019-02-19T04:59:28.799Z,20.40
2019-02-19T05:01:58.112Z,25.30
2019-02-19T05:04:27.319Z,33.10
2019-02-19T05:06:56.609Z,22.90
2019-02-19T05:09:25.833Z,22.80
2019-02-19T05:11:55.045Z,26.57
2019-02-19T05:14:24.270Z,33.03
2019-02-19T05:16:53.464Z,22.83
2019-02-19T05:19:22.877Z,19.37
2019-02-19T05:21:51.995Z,37.23
2019-02-19T05:24:21.171Z,28.63
2019-02-19T05:26:50.391Z,23.97
2019-02-19T05:29:19.694Z,22.90
2019-02-19T05:31:48.809Z,24.47
2019-02-19T05:34:19.463Z,23.00
2019-02-19T05:36:48.642Z,20.63
2019-02-19T05:39:17.941Z,25.60
2019-02-19T05:41:47.064Z,29.93
2019-02-19T05:44:16.265Z,27.37
2019-02-19T05:46:49.967Z,26.97
2019-02-19T05:49:16.422Z,29.77
2019-02-19T05:51:45.545Z,32.33
2019-02-19T05:54:14.728Z,35.93
2019-02-19T05:56:43.843Z,30.33
2019-02-19T05:59:13.035Z,25.00
2019-02-19T06:01:42.157Z,23.40
2019-02-19T06:04:11.440Z,21.97
2019-02-19T06:06:40.553Z,24.27
2019-02-19T06:09:09.750Z,24.27
2019-02-19T06:11:38.863Z,25.33
2019-02-19T06:14:08.047Z,18.10
2019-02-19T06:16:37.169Z,23.80
2019-02-19T06:19:06.348Z,24.03
2019-02-19T06:21:35.459Z,25.13
2019-02-19T06:24:04.852Z,23.43
2019-02-19T06:26:33.963Z,26.00
2019-02-19T06:29:06.363Z,24.30
2019-02-19T06:31:35.471Z,26.67
2019-02-19T06:34:04.744Z,26.17
2019-02-19T06:36:33.866Z,24.10
2019-02-19T06:39:03.063Z,27.37
2019-02-19T06:41:32.497Z,31.20
2019-02-19T06:44:01.683Z,22.30
2019-02-19T06:46:30.899Z,22.57
2019-02-19T06:49:00.016Z,22.23
2019-02-19T06:51:29.298Z,26.10
2019-02-19T06:53:58.417Z,27.83
2019-02-19T06:56:27.710Z,22.00
2019-02-19T06:58:56.832Z,23.20
2019-02-19T07:01:27.598Z,26.10
2019-02-19T07:04:01.159Z,27.70
2019-02-19T07:06:30.794Z,28.17
2019-02-19T07:08:59.977Z,24.00
2019-02-19T07:11:29.148Z,27.97
2019-02-19T07:13:58.262Z,23.40
2019-02-19T07:16:27.446Z,22.90
2019-02-19T07:18:56.564Z,25.47
2019-02-19T07:21:25.741Z,26.03
2019-02-19T07:24:04.211Z,27.47
2019-02-19T07:26:25.785Z,25.60
2019-02-19T07:28:54.895Z,25.57
2019-02-19T07:31:24.094Z,25.63
2019-02-19T07:33:53.207Z,23.90
2019-02-19T07:36:22.385Z,25.10
2019-02-19T07:38:52.489Z,20.93
2019-02-19T07:41:21.795Z,21.50
2019-02-19T07:43:50.905Z,22.27
2019-02-19T07:46:20.208Z,28.67
2019-02-19T07:48:49.326Z,21.27
2019-02-19T07:51:18.505Z,26.77
2019-02-19T07:53:47.619Z,25.87
2019-02-19T07:56:16.808Z,25.73
2019-02-19T07:58:45.921Z,25.23
2019-02-19T08:01:15.203Z,22.50
2019-02-19T08:03:44.320Z,22.07
2019-02-19T08:06:13.510Z,24.97
2019-02-19T08:08:42.628Z,24.10
2019-02-19T08:11:11.812Z,28.50
2019-02-19T08:13:40.916Z,24.20
2019-02-19T08:16:10.115Z,18.90
2019-02-19T08:18:39.231Z,23.03
2019-02-19T08:21:08.415Z,18.20
2019-02-19T08:23:37.532Z,23.40
2019-02-19T08:26:06.703Z,18.03
2019-02-19T08:28:35.826Z,21.07
2019-02-19T08:31:05.253Z,20.80
2019-02-19T08:33:34.445Z,17.27
2019-02-19T08:36:03.577Z,24.77
2019-02-19T08:38:32.847Z,16.80
2019-02-19T08:41:01.976Z,16.73
2019-02-19T08:43:31.155Z,16.90
2019-02-19T08:46:00.270Z,14.57
2019-02-19T08:48:29.564Z,18.50
2019-02-19T08:50:58.770Z,14.93
2019-02-19T08:53:27.949Z,14.23
2019-02-19T08:55:57.161Z,12.97
2019-02-19T08:58:26.362Z,20.03
2019-02-19T09:00:55.484Z,27.10
2019-02-19T09:03:24.668Z,14.03
2019-02-19T09:05:53.976Z,11.43
2019-02-19T09:08:23.178Z,16.33
2019-02-19T09:10:52.486Z,10.83
2019-02-19T09:13:21.779Z,10.63
2019-02-19T09:15:50.902Z,12.27
2019-02-19T09:18:20.097Z,8.97
2019-02-19T09:20:49.407Z,11.00
2019-02-19T09:23:18.707Z,10.57
2019-02-19T09:25:48.014Z,8.10
2019-02-19T09:28:17.431Z,9.73
2019-02-19T09:30:46.656Z,9.03
2019-02-19T09:33:15.930Z,9.37
2019-02-19T09:35:45.366Z,10.63
2019-02-19T09:38:14.669Z,8.33
2019-02-19T09:40:43.790Z,8.03
2019-02-19T09:43:13.019Z,7.73
2019-02-19T09:45:42.216Z,7.60
2019-02-19T09:48:11.316Z,7.37
2019-02-19T09:50:40.517Z,9.43
2019-02-19T09:53:09.635Z,8.67
2019-02-19T09:55:38.817Z,7.13
2019-02-19T09:58:07.929Z,7.10
2019-02-19T10:00:37.109Z,7.70
2019-02-19T10:03:06.421Z,7.83
2019-02-19T10:05:35.603Z,9.60
2019-02-19T10:08:04.913Z,15.47
2019-02-19T10:10:34.114Z,4.77
2019-02-19T10:13:03.225Z,9.37
2019-02-19T10:15:32.398Z,8.63
2019-02-19T10:18:09.693Z,5.60
2019-02-19T10:20:32.454Z,11.53
2019-02-19T10:23:01.665Z,7.00
2019-02-19T10:25:30.862Z,5.27
2019-02-19T10:28:00.108Z,7.60
2019-02-19T10:30:29.256Z,9.50
2019-02-19T10:32:58.490Z,6.77
2019-02-19T10:35:27.761Z,6.53
2019-02-19T10:37:57.017Z,8.57
2019-02-19T10:40:26.391Z,7.27
2019-02-19T10:42:55.735Z,12.07
2019-02-19T10:45:26.410Z,9.17
2019-02-19T10:47:55.906Z,8.63
2019-02-19T10:50:25.238Z,9.00
2019-02-19T10:52:54.573Z,7.70
2019-02-19T10:55:26.556Z,6.20
2019-02-19T10:57:55.679Z,6.03
2019-02-19T11:00:25.362Z,12.63
2019-02-19T11:02:54.494Z,17.20
2019-02-19T11:05:23.991Z,7.33
2019-02-19T11:07:53.312Z,7.50
2019-02-19T11:10:22.621Z,7.03
2019-02-19T11:12:51.725Z,7.63
2019-02-19T11:15:20.913Z,7.60
2019-02-19T11:17:50.123Z,7.77
2019-02-19T11:20:23.150Z,7.83
2019-02-19T11:22:52.457Z,7.73
2019-02-19T11:25:21.653Z,7.13
2019-02-19T11:27:50.844Z,7.03
2019-02-19T11:30:20.751Z,10.63
2019-02-19T11:32:50.154Z,6.77
2019-02-19T11:35:19.505Z,9.00
2019-02-19T11:37:48.666Z,9.93
2019-02-19T11:40:17.811Z,10.57
2019-02-19T11:42:47.096Z,10.33
2019-02-19T11:45:17.709Z,9.37
2019-02-19T11:47:46.896Z,10.67
2019-02-19T11:50:16.230Z,6.67
2019-02-19T11:52:46.956Z,6.87
2019-02-19T11:55:18.194Z,14.33
2019-02-19T11:57:49.930Z,7.33
2019-02-19T12:00:20.717Z,8.03
2019-02-19T12:02:49.897Z,10.13
2019-02-19T12:05:19.462Z,9.27
2019-02-19T12:07:48.749Z,8.30
2019-02-19T12:10:17.861Z,12.20
2019-02-19T12:12:47.182Z,9.37
2019-02-19T12:15:16.428Z,7.83
2019-02-19T12:17:45.802Z,11.63
2019-02-19T12:20:15.429Z,8.50
2019-02-19T12:22:44.959Z,11.60
2019-02-19T12:25:14.688Z,9.10
2019-02-19T12:27:45.175Z,11.93
2019-02-19T12:30:16.448Z,12.17
2019-02-19T12:32:45.835Z,8.30
2019-02-19T12:35:15.149Z,12.83
2019-02-19T12:37:44.539Z,7.83
2019-02-19T12:40:14.572Z,13.07
2019-02-19T12:42:43.972Z,10.23
2019-02-19T12:45:14.913Z,12.67
2019-02-19T12:47:44.191Z,10.93
2019-02-19T12:50:15.614Z,14.37
2019-02-19T12:52:45.103Z,9.27
2019-02-19T12:55:14.429Z,14.10
2019-02-19T12:57:44.519Z,11.50
2019-02-19T13:00:18.093Z,12.07
2019-02-19T13:02:47.379Z,12.40
2019-02-19T13:05:17.110Z,20.23
2019-02-19T13:07:47.059Z,9.70
2019-02-19T13:10:16.427Z,16.80
2019-02-19T13:12:45.639Z,13.87
2019-02-19T13:15:22.410Z,11.90
2019-02-19T13:17:51.632Z,18.37
2019-02-19T13:20:21.013Z,10.20
2019-02-19T13:22:50.241Z,10.50
2019-02-19T13:25:19.522Z,13.53
2019-02-19T13:27:48.754Z,10.27
2019-02-19T13:30:19.738Z,12.83
2019-02-19T13:32:49.041Z,14.20
2019-02-19T13:35:18.215Z,15.07
2019-02-19T13:37:47.425Z,9.90
2019-02-19T13:40:18.672Z,13.67
2019-02-19T13:42:47.910Z,15.70
2019-02-19T13:45:17.290Z,19.00
2019-02-19T13:47:46.397Z,19.97
2019-02-19T13:50:20.958Z,13.07
2019-02-19T13:52:54.456Z,16.13
2019-02-19T13:55:25.217Z,16.53
2019-02-19T13:57:54.359Z,13.40
2019-02-19T14:00:25.186Z,15.67
2019-02-19T14:02:54.413Z,17.73
2019-02-19T14:05:23.698Z,15.23
2019-02-19T14:07:52.917Z,15.83
2019-02-19T14:10:22.097Z,17.93
2019-02-19T14:12:51.329Z,15.37
2019-02-19T14:15:38.388Z,21.63
2019-02-19T14:18:09.087Z,15.80
2019-02-19T14:20:55.975Z,19.53
2019-02-19T14:23:42.723Z,20.93
2019-02-19T14:26:13.624Z,16.23
2019-02-19T14:29:00.596Z,22.07
2019-02-19T14:31:40.147Z,15.77
2019-02-19T14:34:10.845Z,15.10
2019-02-19T14:36:50.638Z,18.70
2019-02-19T14:39:21.363Z,15.17
2019-02-19T14:42:08.418Z,13.13
2019-02-19T14:44:55.437Z,16.30
2019-02-19T14:47:42.120Z,14.97
2019-02-19T14:50:21.463Z,15.07
2019-02-19T14:52:55.218Z,15.37
2019-02-19T14:55:29.101Z,14.43
2019-02-19T14:58:08.268Z,18.90
2019-02-19T15:00:57.252Z,13.43
2019-02-19T15:03:27.982Z,16.87
2019-02-19T15:06:17.043Z,18.00
2019-02-19T15:08:53.893Z,20.00
2019-02-19T15:11:24.676Z,19.10
2019-02-19T15:14:01.196Z,28.13
2019-02-19T15:16:31.922Z,16.23
2019-02-19T15:19:02.651Z,24.67
2019-02-19T15:21:36.416Z,21.90
2019-02-19T15:24:22.048Z,18.07
2019-02-19T15:26:54.551Z,24.20
2019-02-19T15:29:41.418Z,16.53
2019-02-19T15:32:12.298Z,17.53
2019-02-19T15:34:46.121Z,18.53
2019-02-19T15:37:28.669Z,16.87
2019-02-19T15:40:05.410Z,20.03
2019-02-19T15:42:38.927Z,29.17
2019-02-19T15:45:13.787Z,24.73
2019-02-19T15:48:00.255Z,23.80
2019-02-19T15:50:47.020Z,20.77
2019-02-19T15:53:26.915Z,19.47
2019-02-19T15:56:17.178Z,22.80
2019-02-19T15:58:45.043Z,19.70
2019-02-19T16:01:31.459Z,19.63
2019-02-19T16:04:18.349Z,29.70
2019-02-19T16:06:49.066Z,19.40
2019-02-19T16:09:25.329Z,31.80
2019-02-19T16:11:56.052Z,17.90
2019-02-19T16:14:32.723Z,20.53
2019-02-19T16:17:03.446Z,22.07
2019-02-19T16:19:37.185Z,19.83
2019-02-19T16:22:19.868Z,21.70
2019-02-19T16:24:53.630Z,25.27
2019-02-19T16:27:27.050Z,16.37
2019-02-19T16:29:59.263Z,24.40
2019-02-19T16:32:48.112Z,21.70
2019-02-19T16:35:35.095Z,16.97
2019-02-19T16:38:11.332Z,17.70
2019-02-19T16:40:42.473Z,23.17
2019-02-19T16:43:15.919Z,22.57
2019-02-19T16:45:46.766Z,23.03
2019-02-19T16:48:29.653Z,22.37
2019-02-19T16:51:02.036Z,24.07
2019-02-19T16:53:32.690Z,22.13
2019-02-19T16:56:06.199Z,20.05
2019-02-19T16:58:36.920Z,23.00
2019-02-19T17:01:24.896Z,23.30
2019-02-19T17:03:55.666Z,15.73
2019-02-19T17:06:26.571Z,17.63
2019-02-19T17:08:57.289Z,25.77
2019-02-19T17:11:31.403Z,20.63
2019-02-19T17:14:04.832Z,21.23
2019-02-19T17:16:38.482Z,18.00
2019-02-19T17:19:11.834Z,21.20
2019-02-19T17:21:42.639Z,21.30
2019-02-19T17:24:16.404Z,21.12
2019-02-19T17:26:53.003Z,17.97
2019-02-19T17:29:29.551Z,24.33
2019-02-19T17:32:12.426Z,23.60
2019-02-19T17:34:46.177Z,21.67
2019-02-19T17:37:33.289Z,20.60
2019-02-19T17:40:04.033Z,19.20
2019-02-19T17:42:43.670Z,22.40
2019-02-19T17:45:17.570Z,20.90
2019-02-19T17:48:00.200Z,18.23
2019-02-19T17:50:38.138Z,21.97
2019-02-19T17:53:06.573Z,19.30
2019-02-19T17:55:42.993Z,18.83
2019-02-19T17:58:13.795Z,23.43
2019-02-19T18:00:44.636Z,18.40
2019-02-19T18:03:15.490Z,21.57
2019-02-19T18:05:46.212Z,21.63
2019-02-19T18:08:17.144Z,15.67
2019-02-19T18:10:51.403Z,17.23
2019-02-19T18:13:31.112Z,20.97
2019-02-19T18:16:10.676Z,19.70
2019-02-19T18:18:52.362Z,26.77
2019-02-19T18:21:21.746Z,26.13
2019-02-19T18:23:51.257Z,20.60
2019-02-19T18:26:20.662Z,23.37
2019-02-19T18:28:49.861Z,18.03
2019-02-19T18:31:18.969Z,22.27
2019-02-19T18:33:48.301Z,15.87
2019-02-19T18:36:17.601Z,21.17
2019-02-19T18:38:46.885Z,17.20
2019-02-19T18:41:15.998Z,23.03
2019-02-19T18:43:47.314Z,23.32
2019-02-19T18:46:17.204Z,26.33
2019-02-19T18:48:46.605Z,29.97
2019-02-19T18:51:15.835Z,24.50
2019-02-19T18:53:45.126Z,23.37
2019-02-19T18:56:14.343Z,24.87
2019-02-19T18:58:43.624Z,25.60
2019-02-19T19:01:12.856Z,31.43
2019-02-19T19:03:42.064Z,48.67
2019-02-19T19:06:11.177Z,24.90
2019-02-19T19:08:40.467Z,19.20
2019-02-19T19:11:09.850Z,22.97
2019-02-19T19:13:39.109Z,24.67
2019-02-19T19:16:08.434Z,22.13
2019-02-19T19:18:37.614Z,21.23
2019-02-19T19:21:08.227Z,22.90
2019-02-19T19:23:37.638Z,18.93
2019-02-19T19:26:07.079Z,24.43
2019-02-19T19:28:36.434Z,22.27
2019-02-19T19:31:05.932Z,21.67
2019-02-19T19:33:35.245Z,25.63
2019-02-19T19:36:04.654Z,23.37
2019-02-19T19:38:34.013Z,23.53
2019-02-19T19:41:03.535Z,27.83
2019-02-19T19:43:32.755Z,20.30
2019-02-19T19:46:02.086Z,22.07
2019-02-19T19:48:31.296Z,21.13
2019-02-19T19:51:02.254Z,20.60
2019-02-19T19:53:31.504Z,23.20
2019-02-19T19:56:00.791Z,20.23
2019-02-19T19:58:29.887Z,23.13
2019-02-19T20:00:59.070Z,27.27
2019-02-19T20:03:28.185Z,25.13
2019-02-19T20:05:57.373Z,24.43
2019-02-19T20:08:26.488Z,25.17
2019-02-19T20:10:58.836Z,23.50
2019-02-19T20:13:28.162Z,26.63
2019-02-19T20:15:57.492Z,32.90
2019-02-19T20:18:26.773Z,35.10
2019-02-19T20:20:56.174Z,27.27
2019-02-19T20:23:25.398Z,33.40
2019-02-19T20:25:55.942Z,27.30
2019-02-19T20:28:25.285Z,28.60
2019-02-19T20:30:54.788Z,27.07
2019-02-19T20:33:24.039Z,26.67
2019-02-19T20:35:53.341Z,32.67
2019-02-19T20:38:23.707Z,27.63
2019-02-19T20:40:53.014Z,35.60
2019-02-19T20:43:22.461Z,24.77
2019-02-19T20:45:51.973Z,28.90
2019-02-19T20:48:21.335Z,28.80
2019-02-19T20:50:50.738Z,21.33
2019-02-19T20:53:23.287Z,30.73
2019-02-19T20:55:52.628Z,25.50
2019-02-19T20:58:21.991Z,26.80
2019-02-19T21:00:53.237Z,27.80
2019-02-19T21:03:22.555Z,28.77
2019-02-19T21:05:51.876Z,31.47
2019-02-19T21:08:21.378Z,29.87
2019-02-19T21:13:57.611Z,26.00
2019-02-19T21:16:27.277Z,31.70
2019-02-19T21:18:56.673Z,26.00
2019-02-19T21:21:26.002Z,28.40
2019-02-19T21:23:55.249Z,39.87
2019-02-19T21:26:24.472Z,29.77
2019-02-19T21:28:53.665Z,26.10
2019-02-19T21:31:22.884Z,28.27
2019-02-19T21:33:52.276Z,27.83
2019-02-19T21:36:21.615Z,23.53
2019-02-19T21:38:52.461Z,26.07
2019-02-19T21:41:21.848Z,23.37
2019-02-19T21:43:51.256Z,26.27
2019-02-19T21:46:20.493Z,28.43
2019-02-19T21:48:49.806Z,29.50
2019-02-19T21:51:19.060Z,30.60
2019-02-19T21:53:48.461Z,34.47
2019-02-19T21:56:17.716Z,29.10
2019-02-19T21:58:47.028Z,28.73
2019-02-19T22:01:16.385Z,30.57
2019-02-19T22:03:45.744Z,28.27
2019-02-19T22:06:15.384Z,31.37
2019-02-19T22:08:44.838Z,29.53
2019-02-19T22:11:14.221Z,31.07
2019-02-19T22:13:43.780Z,30.00
2019-02-19T22:16:13.144Z,30.50
2019-02-19T22:18:42.467Z,34.40
2019-02-19T22:21:13.293Z,30.53
2019-02-19T22:23:42.606Z,27.60
2019-02-19T22:26:12.059Z,31.33
2019-02-19T22:28:41.363Z,27.13
2019-02-19T22:31:12.371Z,26.93
2019-02-19T22:33:42.553Z,29.00
2019-02-19T22:36:13.477Z,24.07
2019-02-19T22:38:43.165Z,28.97
2019-02-19T22:41:15.441Z,26.70
2019-02-19T22:43:45.566Z,27.70
2019-02-19T22:46:15.076Z,30.20
2019-02-19T22:48:44.495Z,27.40
2019-02-19T22:51:13.957Z,30.13
2019-02-19T22:53:44.979Z,29.90
2019-02-19T22:56:15.921Z,36.13
2019-02-19T22:58:46.465Z,29.10
2019-02-19T23:01:23.429Z,27.30
2019-02-19T23:03:53.005Z,30.00
2019-02-19T23:06:22.480Z,30.33
2019-02-19T23:08:52.107Z,28.33
2019-02-19T23:11:21.767Z,29.47
2019-02-19T23:13:51.286Z,28.60
2019-02-19T23:16:22.728Z,29.30
2019-02-19T23:18:52.005Z,28.50
2019-02-19T23:21:21.365Z,28.30
2019-02-19T23:23:50.693Z,29.17
2019-02-19T23:26:20.092Z,29.77
2019-02-19T23:28:49.350Z,31.63
2019-02-19T23:31:18.738Z,27.50
2019-02-19T23:33:47.970Z,33.00
2019-02-19T23:36:27.428Z,30.33
2019-02-19T23:38:56.753Z,29.03
2019-02-19T23:41:26.065Z,33.00
2019-02-19T23:43:57.132Z,27.17
2019-02-19T23:46:26.421Z,29.73
2019-02-19T23:48:55.652Z,30.97
2019-02-19T23:51:25.054Z,29.60
2019-02-19T23:53:54.411Z,33.87
2019-02-19T23:56:23.811Z,27.40
2019-02-19T23:58:53.159Z,28.30
